sensor_id;sensor_type;location;lat;lon;timestamp;pressure;altitude;pressure_sealevel;temperature;humidity
51249;BME280;39642;47.556;18.728;2023-06-26T00:02:18;99531.41;;;24.76;50.87
51249;BME280;39642;47.556;18.728;2023-06-26T00:04:44;99533.22;;;24.76;50.90
51249;BME280;39642;47.556;18.728;2023-06-26T00:07:10;99532.38;;;24.75;50.89
51249;BME280;39642;47.556;18.728;2023-06-26T00:09:37;99524.41;;;24.75;50.86
51249;BME280;39642;47.556;18.728;2023-06-26T00:12:03;99521.72;;;24.75;50.83
51249;BME280;39642;47.556;18.728;2023-06-26T00:14:29;99525.34;;;24.74;50.86
51249;BME280;39642;47.556;18.728;2023-06-26T00:16:55;99524.41;;;24.75;50.85
51249;BME280;39642;47.556;18.728;2023-06-26T00:19:21;99526.22;;;24.75;50.79
51249;BME280;39642;47.556;18.728;2023-06-26T00:21:47;99525.34;;;24.74;50.79
51249;BME280;39642;47.556;18.728;2023-06-26T00:24:14;99523.56;;;24.75;50.77
51249;BME280;39642;47.556;18.728;2023-06-26T00:26:40;99524.50;;;24.73;50.74
51249;BME280;39642;47.556;18.728;2023-06-26T00:29:06;99529.84;;;24.73;50.76
51249;BME280;39642;47.556;18.728;2023-06-26T00:31:32;99528.00;;;24.74;50.72
51249;BME280;39642;47.556;18.728;2023-06-26T00:33:58;99527.19;;;24.73;50.75
51249;BME280;39642;47.556;18.728;2023-06-26T00:36:23;99526.34;;;24.73;50.73
51249;BME280;39642;47.556;18.728;2023-06-26T00:38:52;99519.31;;;24.72;50.73
51249;BME280;39642;47.556;18.728;2023-06-26T00:41:18;99531.66;;;24.73;50.72
51249;BME280;39642;47.556;18.728;2023-06-26T00:43:44;99532.62;;;24.72;50.72
51249;BME280;39642;47.556;18.728;2023-06-26T00:46:12;99525.50;;;24.72;50.72
51249;BME280;39642;47.556;18.728;2023-06-26T00:48:40;99527.28;;;24.72;50.71
51249;BME280;39642;47.556;18.728;2023-06-26T00:51:07;99521.97;;;24.72;50.67
51249;BME280;39642;47.556;18.728;2023-06-26T00:53:33;99528.28;;;24.71;50.69
51249;BME280;39642;47.556;18.728;2023-06-26T00:56:00;99518.56;;;24.70;50.68
51249;BME280;39642;47.556;18.728;2023-06-26T00:58:27;99514.22;;;24.69;50.68
51249;BME280;39642;47.556;18.728;2023-06-26T01:00:54;99512.41;;;24.69;50.67
51249;BME280;39642;47.556;18.728;2023-06-26T01:03:22;99514.22;;;24.69;50.66
51249;BME280;39642;47.556;18.728;2023-06-26T01:05:48;99516.91;;;24.69;50.67
51249;BME280;39642;47.556;18.728;2023-06-26T01:08:16;99513.41;;;24.68;50.63
51249;BME280;39642;47.556;18.728;2023-06-26T01:10:42;99513.41;;;24.68;50.65
51249;BME280;39642;47.556;18.728;2023-06-26T01:13:08;99519.56;;;24.69;50.64
51249;BME280;39642;47.556;18.728;2023-06-26T01:15:34;99512.56;;;24.68;50.63
51249;BME280;39642;47.556;18.728;2023-06-26T01:18:01;99515.22;;;24.68;50.60
51249;BME280;39642;47.556;18.728;2023-06-26T01:20:37;99509.91;;;24.68;50.58
51249;BME280;39642;47.556;18.728;2023-06-26T01:23:24;99509.91;;;24.68;50.60
51249;BME280;39642;47.556;18.728;2023-06-26T01:28:39;99507.22;;;24.68;50.55
51249;BME280;39642;47.556;18.728;2023-06-26T01:31:07;99505.41;;;24.68;50.53
51249;BME280;39642;47.556;18.728;2023-06-26T01:33:34;99509.91;;;24.68;50.52
51249;BME280;39642;47.556;18.728;2023-06-26T01:36:00;99503.69;;;24.67;50.51
51249;BME280;39642;47.556;18.728;2023-06-26T01:38:26;99503.69;;;24.67;50.47
51249;BME280;39642;47.556;18.728;2023-06-26T01:40:53;99508.19;;;24.67;50.50
51249;BME280;39642;47.556;18.728;2023-06-26T01:43:26;99506.34;;;24.67;50.47
51249;BME280;39642;47.556;18.728;2023-06-26T01:45:58;99503.84;;;24.66;50.47
51249;BME280;39642;47.556;18.728;2023-06-26T01:48:30;99501.19;;;24.66;50.47
51249;BME280;39642;47.556;18.728;2023-06-26T01:50:58;99501.19;;;24.66;50.46
51249;BME280;39642;47.556;18.728;2023-06-26T01:53:32;99506.50;;;24.66;50.45
51249;BME280;39642;47.556;18.728;2023-06-26T01:56:06;99505.63;;;24.65;50.40
51249;BME280;39642;47.556;18.728;2023-06-26T01:58:33;99504.78;;;24.65;50.39
51249;BME280;39642;47.556;18.728;2023-06-26T02:01:01;99509.16;;;24.66;50.35
51249;BME280;39642;47.556;18.728;2023-06-26T02:03:27;99509.16;;;24.66;50.32
51249;BME280;39642;47.556;18.728;2023-06-26T02:05:53;99500.31;;;24.65;50.32
51249;BME280;39642;47.556;18.728;2023-06-26T02:08:19;99504.78;;;24.65;50.29
51249;BME280;39642;47.556;18.728;2023-06-26T02:10:45;99500.47;;;24.64;50.31
51249;BME280;39642;47.556;18.728;2023-06-26T02:13:11;99500.47;;;24.64;50.31
51249;BME280;39642;47.556;18.728;2023-06-26T02:15:37;99498.63;;;24.64;50.24
51249;BME280;39642;47.556;18.728;2023-06-26T02:18:02;99503.13;;;24.64;50.21
51249;BME280;39642;47.556;18.728;2023-06-26T02:20:28;99503.97;;;24.64;50.19
51249;BME280;39642;47.556;18.728;2023-06-26T02:22:54;99503.13;;;24.64;50.17
51249;BME280;39642;47.556;18.728;2023-06-26T02:25:20;99502.28;;;24.63;50.14
51249;BME280;39642;47.556;18.728;2023-06-26T02:27:46;99508.44;;;24.64;50.15
51249;BME280;39642;47.556;18.728;2023-06-26T02:30:12;99501.41;;;24.63;50.10
51249;BME280;39642;47.556;18.728;2023-06-26T02:32:38;99514.72;;;24.63;50.06
51249;BME280;39642;47.556;18.728;2023-06-26T02:35:04;99511.22;;;24.62;50.08
51249;BME280;39642;47.556;18.728;2023-06-26T02:37:30;99507.72;;;24.62;50.00
51249;BME280;39642;47.556;18.728;2023-06-26T02:39:56;99514.88;;;24.61;49.99
51249;BME280;39642;47.556;18.728;2023-06-26T02:42:22;99519.31;;;24.61;49.99
51249;BME280;39642;47.556;18.728;2023-06-26T02:44:48;99517.53;;;24.61;49.99
51249;BME280;39642;47.556;18.728;2023-06-26T02:47:14;99512.31;;;24.60;49.98
51249;BME280;39642;47.556;18.728;2023-06-26T02:49:39;99511.31;;;24.61;49.92
51249;BME280;39642;47.556;18.728;2023-06-26T02:52:06;99517.62;;;24.60;49.89
51249;BME280;39642;47.556;18.728;2023-06-26T02:54:31;99512.31;;;24.60;49.89
51249;BME280;39642;47.556;18.728;2023-06-26T02:56:58;99522.97;;;24.60;49.95
51249;BME280;39642;47.556;18.728;2023-06-26T02:59:25;99520.31;;;24.60;49.87
51249;BME280;39642;47.556;18.728;2023-06-26T03:01:51;99518.47;;;24.60;49.85
51249;BME280;39642;47.556;18.728;2023-06-26T03:04:17;99514.97;;;24.60;49.81
51249;BME280;39642;47.556;18.728;2023-06-26T03:06:43;99513.25;;;24.59;49.79
51249;BME280;39642;47.556;18.728;2023-06-26T03:09:09;99522.97;;;24.60;49.78
51249;BME280;39642;47.556;18.728;2023-06-26T03:11:35;99512.31;;;24.60;49.75
51249;BME280;39642;47.556;18.728;2023-06-26T03:14:01;99503.59;;;24.58;49.72
51249;BME280;39642;47.556;18.728;2023-06-26T03:16:27;99513.25;;;24.59;49.70
51249;BME280;39642;47.556;18.728;2023-06-26T03:18:53;99516.81;;;24.59;49.68
51249;BME280;39642;47.556;18.728;2023-06-26T03:21:19;99523.06;;;24.58;49.65
51249;BME280;39642;47.556;18.728;2023-06-26T03:23:44;99525.72;;;24.58;49.65
51249;BME280;39642;47.556;18.728;2023-06-26T03:26:10;99522.13;;;24.59;49.59
51249;BME280;39642;47.556;18.728;2023-06-26T03:28:36;99522.22;;;24.58;49.57
51249;BME280;39642;47.556;18.728;2023-06-26T03:31:02;99522.22;;;24.58;49.60
51249;BME280;39642;47.556;18.728;2023-06-26T03:33:28;99519.69;;;24.56;49.54
51249;BME280;39642;47.556;18.728;2023-06-26T03:35:54;99518.72;;;24.57;49.55
51249;BME280;39642;47.556;18.728;2023-06-26T03:38:21;99521.41;;;24.57;49.50
51249;BME280;39642;47.556;18.728;2023-06-26T03:40:47;99533.88;;;24.57;49.48
51249;BME280;39642;47.556;18.728;2023-06-26T03:43:13;99529.37;;;24.57;49.48
51249;BME280;39642;47.556;18.728;2023-06-26T03:45:38;99523.22;;;24.57;49.47
51249;BME280;39642;47.556;18.728;2023-06-26T03:48:04;99532.16;;;24.56;49.45
51249;BME280;39642;47.556;18.728;2023-06-26T03:50:30;99523.34;;;24.55;49.45
51249;BME280;39642;47.556;18.728;2023-06-26T03:52:56;99526.00;;;24.55;49.49
51249;BME280;39642;47.556;18.728;2023-06-26T03:55:22;99520.66;;;24.55;49.45
51249;BME280;39642;47.556;18.728;2023-06-26T03:57:49;99520.66;;;24.55;49.41
51249;BME280;39642;47.556;18.728;2023-06-26T04:00:15;99532.16;;;24.56;49.44
51249;BME280;39642;47.556;18.728;2023-06-26T04:02:41;99534.81;;;24.56;49.44
51249;BME280;39642;47.556;18.728;2023-06-26T04:05:07;99532.16;;;24.56;49.44
51249;BME280;39642;47.556;18.728;2023-06-26T04:07:33;99534.09;;;24.54;49.41
51249;BME280;39642;47.556;18.728;2023-06-26T04:10:00;99534.81;;;24.56;49.41
51249;BME280;39642;47.556;18.728;2023-06-26T04:12:26;99542.81;;;24.56;49.40
51249;BME280;39642;47.556;18.728;2023-06-26T04:14:51;99546.44;;;24.55;49.40
51249;BME280;39642;47.556;18.728;2023-06-26T04:17:17;99538.56;;;24.53;49.46
51249;BME280;39642;47.556;18.728;2023-06-26T04:19:43;99547.28;;;24.55;49.47
51249;BME280;39642;47.556;18.728;2023-06-26T04:22:09;99550.06;;;24.54;49.47
51249;BME280;39642;47.556;18.728;2023-06-26T04:24:35;99556.22;;;24.54;49.46
51249;BME280;39642;47.556;18.728;2023-06-26T04:27:01;99551.87;;;24.53;49.49
51249;BME280;39642;47.556;18.728;2023-06-26T04:29:27;99548.25;;;24.54;49.47
51249;BME280;39642;47.556;18.728;2023-06-26T04:31:53;99554.44;;;24.55;49.45
51249;BME280;39642;47.556;18.728;2023-06-26T04:34:29;99550.78;;;24.56;49.48
51249;BME280;39642;47.556;18.728;2023-06-26T04:36:58;99547.28;;;24.55;49.47
51249;BME280;39642;47.556;18.728;2023-06-26T04:39:24;99551.63;;;24.56;49.46
51249;BME280;39642;47.556;18.728;2023-06-26T04:41:50;99548.97;;;24.56;49.51
51249;BME280;39642;47.556;18.728;2023-06-26T04:44:15;99549.84;;;24.57;49.50
51249;BME280;39642;47.556;18.728;2023-06-26T04:46:41;99547.19;;;24.57;49.53
51249;BME280;39642;47.556;18.728;2023-06-26T04:49:08;99551.63;;;24.56;49.50
51249;BME280;39642;47.556;18.728;2023-06-26T04:51:34;99549.84;;;24.57;49.48
51249;BME280;39642;47.556;18.728;2023-06-26T04:54:10;99549.84;;;24.57;49.51
51249;BME280;39642;47.556;18.728;2023-06-26T04:56:36;99552.50;;;24.57;49.48
51249;BME280;39642;47.556;18.728;2023-06-26T04:59:03;99551.50;;;24.58;49.47
51249;BME280;39642;47.556;18.728;2023-06-26T05:01:29;99554.06;;;24.59;49.50
51249;BME280;39642;47.556;18.728;2023-06-26T05:03:56;99551.41;;;24.59;49.49
51249;BME280;39642;47.556;18.728;2023-06-26T05:06:22;99563.84;;;24.59;49.50
51249;BME280;39642;47.556;18.728;2023-06-26T05:08:48;99562.91;;;24.60;49.51
51249;BME280;39642;47.556;18.728;2023-06-26T05:11:14;99560.22;;;24.60;49.55
51249;BME280;39642;47.556;18.728;2023-06-26T05:13:40;99561.91;;;24.61;49.52
51249;BME280;39642;47.556;18.728;2023-06-26T05:16:06;99566.28;;;24.62;49.54
51249;BME280;39642;47.556;18.728;2023-06-26T05:18:35;99555.62;;;24.62;49.55
51249;BME280;39642;47.556;18.728;2023-06-26T05:21:03;99562.62;;;24.63;49.54
51249;BME280;39642;47.556;18.728;2023-06-26T05:23:33;99561.69;;;24.64;49.55
51249;BME280;39642;47.556;18.728;2023-06-26T05:26:00;99557.19;;;24.64;49.54
51249;BME280;39642;47.556;18.728;2023-06-26T05:28:27;99555.25;;;24.66;49.54
51249;BME280;39642;47.556;18.728;2023-06-26T05:30:54;99553.44;;;24.67;49.48
51249;BME280;39642;47.556;18.728;2023-06-26T05:33:23;99550.78;;;24.67;49.46
51249;BME280;39642;47.556;18.728;2023-06-26T05:35:51;99550.78;;;24.67;49.38
51249;BME280;39642;47.556;18.728;2023-06-26T05:38:18;99559.50;;;24.69;49.49
51249;BME280;39642;47.556;18.728;2023-06-26T05:40:44;99547.03;;;24.69;49.46
51249;BME280;39642;47.556;18.728;2023-06-26T05:43:11;99550.53;;;24.70;49.50
51249;BME280;39642;47.556;18.728;2023-06-26T05:45:37;99546.06;;;24.70;49.49
51249;BME280;39642;47.556;18.728;2023-06-26T05:48:03;99546.06;;;24.70;49.46
51249;BME280;39642;47.556;18.728;2023-06-26T05:50:29;99559.25;;;24.72;49.47
51249;BME280;39642;47.556;18.728;2023-06-26T05:52:55;99549.47;;;24.72;49.49
51249;BME280;39642;47.556;18.728;2023-06-26T05:55:21;99556.47;;;24.73;49.41
51249;BME280;39642;47.556;18.728;2023-06-26T05:57:49;99555.50;;;24.75;49.34
51249;BME280;39642;47.556;18.728;2023-06-26T06:00:16;99552.59;;;24.78;49.24
51249;BME280;39642;47.556;18.728;2023-06-26T06:02:43;99550.75;;;24.78;49.24
51249;BME280;39642;47.556;18.728;2023-06-26T06:05:09;99555.00;;;24.81;49.15
51249;BME280;39642;47.556;18.728;2023-06-26T06:07:35;99561.16;;;24.81;49.26
51249;BME280;39642;47.556;18.728;2023-06-26T06:10:03;99563.81;;;24.81;49.07
51249;BME280;39642;47.556;18.728;2023-06-26T06:12:29;99559.37;;;24.82;49.06
51249;BME280;39642;47.556;18.728;2023-06-26T06:14:56;99554.88;;;24.82;49.09
51249;BME280;39642;47.556;18.728;2023-06-26T06:17:22;99556.56;;;24.83;49.05
51249;BME280;39642;47.556;18.728;2023-06-26T06:19:48;99560.09;;;24.84;49.06
51249;BME280;39642;47.556;18.728;2023-06-26T06:22:14;99558.16;;;24.86;49.25
51249;BME280;39642;47.556;18.728;2023-06-26T06:24:42;99556.34;;;24.86;49.09
51249;BME280;39642;47.556;18.728;2023-06-26T06:27:08;99555.72;;;24.83;49.28
51249;BME280;39642;47.556;18.728;2023-06-26T06:29:34;99561.16;;;24.81;49.80
51249;BME280;39642;47.556;18.728;2023-06-26T06:31:59;99559.59;;;24.79;49.65
51249;BME280;39642;47.556;18.728;2023-06-26T06:34:25;99563.00;;;24.81;49.57
51249;BME280;39642;47.556;18.728;2023-06-26T06:36:51;99561.16;;;24.81;49.66
51249;BME280;39642;47.556;18.728;2023-06-26T06:39:17;99565.66;;;24.81;49.62
51249;BME280;39642;47.556;18.728;2023-06-26T06:41:43;99561.16;;;24.81;49.85
51249;BME280;39642;47.556;18.728;2023-06-26T06:44:09;99559.47;;;24.80;49.81
51249;BME280;39642;47.556;18.728;2023-06-26T06:46:35;99555.00;;;24.81;49.84
51249;BME280;39642;47.556;18.728;2023-06-26T06:49:01;99556.56;;;24.83;49.78
51249;BME280;39642;47.556;18.728;2023-06-26T06:51:27;99558.37;;;24.83;49.62
51249;BME280;39642;47.556;18.728;2023-06-26T06:53:53;99559.13;;;24.85;49.62
51249;BME280;39642;47.556;18.728;2023-06-26T06:56:19;99553.16;;;24.81;49.71
51249;BME280;39642;47.556;18.728;2023-06-26T06:58:45;99550.41;;;24.83;49.55
51249;BME280;39642;47.556;18.728;2023-06-26T07:01:13;99553.78;;;24.85;49.49
51249;BME280;39642;47.556;18.728;2023-06-26T07:03:39;99555.34;;;24.87;49.54
51249;BME280;39642;47.556;18.728;2023-06-26T07:06:06;99560.81;;;24.86;49.45
51249;BME280;39642;47.556;18.728;2023-06-26T07:08:32;99552.84;;;24.86;49.46
51249;BME280;39642;47.556;18.728;2023-06-26T07:10:58;99556.34;;;24.86;50.88
51249;BME280;39642;47.556;18.728;2023-06-26T07:13:24;99551.97;;;24.85;50.15
51249;BME280;39642;47.556;18.728;2023-06-26T07:15:49;99550.28;;;24.84;49.45
51249;BME280;39642;47.556;18.728;2023-06-26T07:18:15;99544.13;;;24.84;49.21
51249;BME280;39642;47.556;18.728;2023-06-26T07:20:41;99544.13;;;24.84;49.21
51249;BME280;39642;47.556;18.728;2023-06-26T07:23:08;99546.78;;;24.84;49.06
51249;BME280;39642;47.556;18.728;2023-06-26T07:25:34;99547.62;;;24.84;49.36
51249;BME280;39642;47.556;18.728;2023-06-26T07:28:00;99546.91;;;24.82;49.27
51249;BME280;39642;47.556;18.728;2023-06-26T07:30:26;99547.62;;;24.84;49.27
51249;BME280;39642;47.556;18.728;2023-06-26T07:32:52;99542.88;;;24.88;48.98
51249;BME280;39642;47.556;18.728;2023-06-26T07:35:18;99541.91;;;24.89;49.26
51249;BME280;39642;47.556;18.728;2023-06-26T07:37:44;99546.16;;;24.91;49.35
51249;BME280;39642;47.556;18.728;2023-06-26T07:40:10;99551.47;;;24.91;48.65
51249;BME280;39642;47.556;18.728;2023-06-26T07:42:36;99538.88;;;24.93;48.00
51249;BME280;39642;47.556;18.728;2023-06-26T07:45:03;99536.22;;;24.93;49.00
51249;BME280;39642;47.556;18.728;2023-06-26T07:47:36;99541.44;;;24.95;49.06
51249;BME280;39642;47.556;18.728;2023-06-26T07:50:02;99541.28;;;24.97;49.11
51249;BME280;39642;47.556;18.728;2023-06-26T07:52:28;99543.00;;;24.98;49.51
51249;BME280;39642;47.556;18.728;2023-06-26T07:54:56;99542.00;;;24.99;49.94
51249;BME280;39642;47.556;18.728;2023-06-26T07:57:23;99552.56;;;25.00;48.81
51249;BME280;39642;47.556;18.728;2023-06-26T07:59:50;99542.63;;;25.02;49.05
51249;BME280;39642;47.556;18.728;2023-06-26T08:02:16;99545.13;;;25.04;49.13
51249;BME280;39642;47.556;18.728;2023-06-26T08:04:43;99545.75;;;25.07;49.17
51249;BME280;39642;47.556;18.728;2023-06-26T08:07:09;99551.06;;;25.07;48.53
51249;BME280;39642;47.556;18.728;2023-06-26T08:09:35;99549.41;;;25.06;48.68
51249;BME280;39642;47.556;18.728;2023-06-26T08:12:01;99554.56;;;25.08;47.89
51249;BME280;39642;47.556;18.728;2023-06-26T08:14:27;99552.78;;;25.08;46.58
51249;BME280;39642;47.556;18.728;2023-06-26T08:20:31;99551.91;;;25.08;46.32
51249;BME280;39642;47.556;18.728;2023-06-26T08:22:57;99558.13;;;25.08;45.92
51249;BME280;39642;47.556;18.728;2023-06-26T08:25:23;99558.13;;;25.08;46.51
51249;BME280;39642;47.556;18.728;2023-06-26T08:27:49;99558.13;;;25.08;45.36
51249;BME280;39642;47.556;18.728;2023-06-26T08:30:18;99564.13;;;25.10;45.81
51249;BME280;39642;47.556;18.728;2023-06-26T08:32:44;99557.97;;;25.10;46.12
51249;BME280;39642;47.556;18.728;2023-06-26T08:35:09;99563.28;;;25.10;46.61
51249;BME280;39642;47.556;18.728;2023-06-26T08:37:35;99559.69;;;25.11;46.33
51249;BME280;39642;47.556;18.728;2023-06-26T08:40:02;99561.34;;;25.12;46.50
51249;BME280;39642;47.556;18.728;2023-06-26T08:42:28;99559.69;;;25.11;46.04
51249;BME280;39642;47.556;18.728;2023-06-26T08:44:54;99564.84;;;25.12;45.96
51249;BME280;39642;47.556;18.728;2023-06-26T08:47:20;99563.91;;;25.13;46.23
51249;BME280;39642;47.556;18.728;2023-06-26T08:49:53;99553.25;;;25.13;46.21
51249;BME280;39642;47.556;18.728;2023-06-26T08:52:29;99558.44;;;25.15;46.23
51249;BME280;39642;47.556;18.728;2023-06-26T08:54:58;99557.47;;;25.16;46.33
51249;BME280;39642;47.556;18.728;2023-06-26T08:57:26;99566.19;;;25.18;46.26
51249;BME280;39642;47.556;18.728;2023-06-26T08:59:52;99560.03;;;25.18;46.56
51249;BME280;39642;47.556;18.728;2023-06-26T09:02:19;99556.41;;;25.19;45.84
51249;BME280;39642;47.556;18.728;2023-06-26T09:04:47;99551.91;;;25.19;45.35
51249;BME280;39642;47.556;18.728;2023-06-26T09:07:14;99560.88;;;25.18;44.80
51249;BME280;39642;47.556;18.728;2023-06-26T09:09:40;99556.41;;;25.19;44.47
51249;BME280;39642;47.556;18.728;2023-06-26T09:12:06;99557.25;;;25.19;45.09
51249;BME280;39642;47.556;18.728;2023-06-26T09:14:34;99558.81;;;25.22;45.14
51249;BME280;39642;47.556;18.728;2023-06-26T09:17:00;99565.00;;;25.22;44.20
51249;BME280;39642;47.556;18.728;2023-06-26T09:19:27;99558.69;;;25.23;45.19
51249;BME280;39642;47.556;18.728;2023-06-26T09:21:54;99554.34;;;25.22;44.65
51249;BME280;39642;47.556;18.728;2023-06-26T09:24:20;99556.88;;;25.24;45.19
51249;BME280;39642;47.556;18.728;2023-06-26T09:26:47;99557.47;;;25.27;44.68
51249;BME280;39642;47.556;18.728;2023-06-26T09:29:13;99560.13;;;25.27;44.64
51249;BME280;39642;47.556;18.728;2023-06-26T09:31:40;99562.06;;;25.25;44.51
51249;BME280;39642;47.556;18.728;2023-06-26T09:34:06;99564.75;;;25.25;44.80
51249;BME280;39642;47.556;18.728;2023-06-26T09:36:33;99561.25;;;25.25;44.52
51249;BME280;39642;47.556;18.728;2023-06-26T09:39:00;99554.91;;;25.26;45.00
51249;BME280;39642;47.556;18.728;2023-06-26T09:41:26;99550.44;;;25.26;44.17
51249;BME280;39642;47.556;18.728;2023-06-26T09:43:52;99560.13;;;25.27;43.87
51249;BME280;39642;47.556;18.728;2023-06-26T09:46:29;99554.81;;;25.27;43.70
51249;BME280;39642;47.556;18.728;2023-06-26T09:51:31;99557.59;;;25.26;44.25
51249;BME280;39642;47.556;18.728;2023-06-26T09:53:59;99557.72;;;25.24;44.27
51249;BME280;39642;47.556;18.728;2023-06-26T09:56:26;99547.91;;;25.25;44.46
51249;BME280;39642;47.556;18.728;2023-06-26T09:58:55;99543.53;;;25.24;43.58
51249;BME280;39642;47.556;18.728;2023-06-26T10:01:23;99544.53;;;25.23;43.76
51249;BME280;39642;47.556;18.728;2023-06-26T10:03:49;99548.03;;;25.23;44.49
51249;BME280;39642;47.556;18.728;2023-06-26T10:06:19;99546.09;;;25.25;44.49
51249;BME280;39642;47.556;18.728;2023-06-26T10:08:46;99541.59;;;25.26;44.16
51249;BME280;39642;47.556;18.728;2023-06-26T10:11:15;99546.94;;;25.26;44.60
51249;BME280;39642;47.556;18.728;2023-06-26T10:13:43;99540.25;;;25.31;44.59
51249;BME280;39642;47.556;18.728;2023-06-26T10:16:13;99551.75;;;25.32;44.02
51249;BME280;39642;47.556;18.728;2023-06-26T10:18:42;99547.41;;;25.31;43.66
51249;BME280;39642;47.556;18.728;2023-06-26T10:21:10;99548.25;;;25.31;43.02
51249;BME280;39642;47.556;18.728;2023-06-26T10:23:39;99540.00;;;25.34;42.40
51249;BME280;39642;47.556;18.728;2023-06-26T10:26:06;99539.41;;;25.31;42.82
51249;BME280;39642;47.556;18.728;2023-06-26T10:28:34;99536.03;;;25.29;43.05
51249;BME280;39642;47.556;18.728;2023-06-26T10:31:02;99533.50;;;25.27;43.29
51249;BME280;39642;47.556;18.728;2023-06-26T10:33:30;99538.69;;;25.29;43.84
51249;BME280;39642;47.556;18.728;2023-06-26T10:36:15;99532.50;;;25.28;43.95
51249;BME280;39642;47.556;18.728;2023-06-26T10:38:51;99534.44;;;25.26;44.46
51249;BME280;39642;47.556;18.728;2023-06-26T10:41:22;99531.94;;;25.25;44.32
51249;BME280;39642;47.556;18.728;2023-06-26T10:44:06;99520.87;;;25.29;44.35
51249;BME280;39642;47.556;18.728;2023-06-26T10:46:52;99531.66;;;25.28;44.38
51249;BME280;39642;47.556;18.728;2023-06-26T10:49:19;99535.03;;;25.30;45.12
51249;BME280;39642;47.556;18.728;2023-06-26T10:51:47;99534.09;;;25.31;44.92
51249;BME280;39642;47.556;18.728;2023-06-26T10:54:16;99534.09;;;25.31;44.63
51249;BME280;39642;47.556;18.728;2023-06-26T10:56:43;99529.59;;;25.31;45.12
51249;BME280;39642;47.556;18.728;2023-06-26T10:59:22;99523.44;;;25.31;44.74
51249;BME280;39642;47.556;18.728;2023-06-26T11:02:04;99528.63;;;25.32;44.56
51249;BME280;39642;47.556;18.728;2023-06-26T11:04:49;99517.12;;;25.32;44.36
51249;BME280;39642;47.556;18.728;2023-06-26T11:07:25;99520.63;;;25.32;44.33
51249;BME280;39642;47.556;18.728;2023-06-26T11:09:55;99519.06;;;25.30;44.78
51249;BME280;39642;47.556;18.728;2023-06-26T11:12:41;99518.22;;;25.29;44.44
51249;BME280;39642;47.556;18.728;2023-06-26T11:15:12;99513.59;;;25.31;44.20
51249;BME280;39642;47.556;18.728;2023-06-26T11:17:39;99511.06;;;25.30;44.06
51249;BME280;39642;47.556;18.728;2023-06-26T11:20:07;99512.16;;;25.27;44.16
51249;BME280;39642;47.556;18.728;2023-06-26T11:22:35;99510.59;;;25.25;44.32
51249;BME280;39642;47.556;18.728;2023-06-26T11:25:02;99512.16;;;25.27;43.80
51249;BME280;39642;47.556;18.728;2023-06-26T11:30:05;99503.19;;;25.28;43.48
51249;BME280;39642;47.556;18.728;2023-06-26T11:32:31;99510.09;;;25.31;42.92
51249;BME280;39642;47.556;18.728;2023-06-26T11:34:59;99502.94;;;25.31;43.04
51249;BME280;39642;47.556;18.728;2023-06-26T11:37:25;99504.91;;;25.29;43.69
51249;BME280;39642;47.556;18.728;2023-06-26T11:39:51;99503.91;;;25.30;43.75
51249;BME280;39642;47.556;18.728;2023-06-26T11:42:19;99516.28;;;25.31;43.10
51249;BME280;39642;47.556;18.728;2023-06-26T11:44:46;99506.44;;;25.32;42.80
51249;BME280;39642;47.556;18.728;2023-06-26T11:49:45;99504.63;;;25.32;42.12
51249;BME280;39642;47.556;18.728;2023-06-26T11:52:11;99500.00;;;25.34;41.44
51249;BME280;39642;47.556;18.728;2023-06-26T11:54:37;99507.16;;;25.34;41.29
51249;BME280;39642;47.556;18.728;2023-06-26T11:57:04;99499.06;;;25.36;41.47
51249;BME280;39642;47.556;18.728;2023-06-26T11:59:35;99493.84;;;25.34;41.64
51249;BME280;39642;47.556;18.728;2023-06-26T12:02:04;99499.19;;;25.34;41.40
51249;BME280;39642;47.556;18.728;2023-06-26T12:04:30;99495.69;;;25.33;41.43
51249;BME280;39642;47.556;18.728;2023-06-26T12:06:56;99499.06;;;25.36;42.09
51249;BME280;39642;47.556;18.728;2023-06-26T12:09:23;99497.69;;;25.41;43.60
51249;BME280;39642;47.556;18.728;2023-06-26T12:11:53;99498.03;;;25.48;43.54
51249;BME280;39642;47.556;18.728;2023-06-26T12:14:20;99494.25;;;25.50;41.19
51249;BME280;39642;47.556;18.728;2023-06-26T12:16:47;99491.84;;;25.47;41.28
51249;BME280;39642;47.556;18.728;2023-06-26T12:19:13;99491.97;;;25.46;41.53
51249;BME280;39642;47.556;18.728;2023-06-26T12:24:16;99491.78;;;25.59;44.29
51249;BME280;39642;47.556;18.728;2023-06-26T12:26:44;99488.00;;;25.61;42.11
51249;BME280;39642;47.556;18.728;2023-06-26T12:29:12;99487.50;;;25.67;43.80
51249;BME280;39642;47.556;18.728;2023-06-26T12:31:43;99481.44;;;25.65;40.97
51249;BME280;39642;47.556;18.728;2023-06-26T12:34:14;99486.00;;;25.74;43.64
51249;BME280;39642;47.556;18.728;2023-06-26T12:36:44;99477.72;;;25.77;42.16
51249;BME280;39642;47.556;18.728;2023-06-26T12:39:11;99475.31;;;25.74;41.40
51249;BME280;39642;47.556;18.728;2023-06-26T12:42:01;99478.50;;;25.68;41.96
51249;BME280;39642;47.556;18.728;2023-06-26T12:44:29;99477.22;;;25.63;41.23
51249;BME280;39642;47.556;18.728;2023-06-26T12:46:59;99479.41;;;25.58;41.40
51249;BME280;39642;47.556;18.728;2023-06-26T12:49:34;99472.28;;;25.58;41.40
51249;BME280;39642;47.556;18.728;2023-06-26T12:52:02;99477.34;;;25.61;41.13
51249;BME280;39642;47.556;18.728;2023-06-26T12:54:28;99472.12;;;25.60;41.51
51249;BME280;39642;47.556;18.728;2023-06-26T12:56:54;99469.47;;;25.60;42.02
51249;BME280;39642;47.556;18.728;2023-06-26T12:59:21;99472.53;;;25.55;41.77
51249;BME280;39642;47.556;18.728;2023-06-26T13:01:47;99475.47;;;25.52;41.24
51249;BME280;39642;47.556;18.728;2023-06-26T13:04:14;99469.41;;;25.50;41.65
51249;BME280;39642;47.556;18.728;2023-06-26T13:06:40;99458.03;;;25.48;41.83
51249;BME280;39642;47.556;18.728;2023-06-26T13:09:06;99466.16;;;25.46;42.06